Time;durP1;ratioP1;P1;durP2;ratioP2;P2;SDS_P1;SDS_P2;PMS_P1;PMS_P2;Temp;Humidity;BMP_temperature;BMP_pressure;BME280_temperature;BME280_humidity;BME280_pressure;Samples;Min_cycle;Max_cycle;Signal;HPM_P1;HPM_P2
2023/10/24 00:00:37;;;;;;;25.80;18.65;;;;;;;10.18;100.00;100061.00;5004948;28;20026;-71
2023/10/24 00:03:02;;;;;;;28.38;19.48;;;;;;;10.20;100.00;100067.09;5006451;28;20018;-72
2023/10/24 00:05:29;;;;;;;22.92;18.40;;;;;;;10.21;100.00;100061.66;4987815;28;20041;-69
2023/10/24 00:07:55;;;;;;;23.83;17.08;;;;;;;10.17;100.00;100056.63;4977396;28;20266;-71
2023/10/24 00:10:21;;;;;;;22.02;17.98;;;;;;;10.18;100.00;100059.19;5004952;28;20033;-71
2023/10/24 00:12:46;;;;;;;20.85;16.15;;;;;;;10.22;100.00;100059.84;4999897;28;20338;-71
2023/10/24 00:15:12;;;;;;;25.65;17.27;;;;;;;10.21;100.00;100061.66;5004238;28;20041;-71
2023/10/24 00:17:37;;;;;;;22.88;16.42;;;;;;;10.22;100.00;100063.38;5003240;28;20056;-71
2023/10/24 00:20:03;;;;;;;21.63;15.80;;;;;;;10.21;100.00;100055.50;5004434;28;20029;-72
2023/10/24 00:22:29;;;;;;;19.92;15.48;;;;;;;10.23;100.00;100057.09;5002690;28;20388;-72
2023/10/24 00:24:54;;;;;;;22.77;15.25;;;;;;;10.23;100.00;100061.56;5000057;28;20143;-70
2023/10/24 00:27:20;;;;;;;21.83;15.80;;;;;;;10.23;100.00;100050.91;5005007;28;20040;-70
2023/10/24 00:29:45;;;;;;;20.83;15.57;;;;;;;10.25;100.00;100053.53;5005037;28;20096;-70
2023/10/24 00:32:11;;;;;;;17.95;14.88;;;;;;;10.23;100.00;100057.09;5003799;28;20030;-70
2023/10/24 00:34:37;;;;;;;18.90;15.38;;;;;;;10.17;100.00;100052.16;5004072;28;20546;-72
2023/10/24 00:37:02;;;;;;;18.83;14.70;;;;;;;10.23;100.00;100053.59;5004126;28;20029;-71
2023/10/24 00:39:28;;;;;;;16.80;14.20;;;;;;;10.21;100.00;100058.16;5003724;28;20024;-72
2023/10/24 00:41:53;;;;;;;17.33;13.52;;;;;;;10.16;100.00;100047.81;5000290;28;20042;-71
2023/10/24 00:44:18;;;;;;;16.52;12.65;;;;;;;10.20;100.00;100067.09;5004629;28;20396;-71
2023/10/24 00:46:44;;;;;;;14.40;13.00;;;;;;;10.13;100.00;100055.97;5004130;28;20421;-71
2023/10/24 00:49:10;;;;;;;13.77;12.27;;;;;;;10.17;100.00;100061.94;4999040;28;20123;-71
2023/10/24 00:51:36;;;;;;;16.17;12.88;;;;;;;10.17;100.00;100061.94;5003838;28;20585;-71
2023/10/24 00:54:02;;;;;;;16.08;12.23;;;;;;;10.15;100.00;100058.50;4998456;28;20042;-71
2023/10/24 00:56:29;;;;;;;17.70;13.98;;;;;;;10.09;100.00;100062.41;4986905;28;20068;-71
2023/10/24 00:58:56;;;;;;;17.13;13.55;;;;;;;10.11;100.00;100063.16;5010415;28;20025;-71
2023/10/24 01:01:25;;;;;;;14.38;12.88;;;;;;;10.08;100.00;100063.38;4994571;28;20073;-71
2023/10/24 01:03:50;;;;;;;15.32;13.55;;;;;;;10.06;100.00;100064.41;4998753;28;20029;-71
2023/10/24 01:06:16;;;;;;;18.02;13.48;;;;;;;10.03;100.00;100064.59;4998865;28;20038;-71
2023/10/24 01:08:42;;;;;;;13.98;12.52;;;;;;;10.02;100.00;100066.38;4986182;28;20212;-72
2023/10/24 01:11:08;;;;;;;11.15;10.05;;;;;;;9.97;100.00;100050.72;4997818;28;20113;-71
2023/10/24 01:13:34;;;;;;;12.00;10.80;;;;;;;9.94;100.00;100055.38;4998519;28;20028;-70
2023/10/24 01:15:59;;;;;;;13.93;12.43;;;;;;;9.95;100.00;100057.09;4989258;28;20059;-69
2023/10/24 01:18:25;;;;;;;15.07;13.48;;;;;;;9.93;100.00;100051.84;5004069;28;20029;-71
2023/10/24 01:20:50;;;;;;;15.88;13.60;;;;;;;9.93;100.00;100059.84;5004303;28;20029;-71
2023/10/24 01:23:17;;;;;;;17.23;15.07;;;;;;;9.94;100.00;100061.53;4986036;28;20362;-71
2023/10/24 01:25:42;;;;;;;18.38;15.10;;;;;;;9.93;100.00;100054.50;4991338;28;20103;-71
2023/10/24 01:28:08;;;;;;;18.02;14.85;;;;;;;9.93;100.00;100069.63;5004138;28;20029;-69
2023/10/24 01:30:35;;;;;;;16.30;14.70;;;;;;;9.93;100.00;100058.97;5001440;28;20140;-70
2023/10/24 01:33:01;;;;;;;16.25;13.82;;;;;;;9.90;100.00;100054.69;4998912;28;20025;-71
2023/10/24 01:35:27;;;;;;;15.48;13.98;;;;;;;9.92;100.00;100066.09;5004206;28;20129;-70
2023/10/24 01:37:52;;;;;;;18.77;14.65;;;;;;;9.92;100.00;100070.56;5004534;28;20584;-71
2023/10/24 01:40:18;;;;;;;16.23;14.52;;;;;;;9.89;100.00;100057.47;5003643;28;20037;-72
2023/10/24 01:42:43;;;;;;;18.83;15.35;;;;;;;9.90;100.00;100061.81;5000651;28;20080;-72
2023/10/24 01:45:09;;;;;;;18.20;16.17;;;;;;;9.91;100.00;100060.88;4991729;28;20038;-71
2023/10/24 01:47:34;;;;;;;18.10;16.13;;;;;;;9.83;100.00;100050.72;5002075;28;20360;-72
2023/10/24 01:50:00;;;;;;;19.15;16.38;;;;;;;9.86;100.00;100050.50;4997056;28;20057;-73
2023/10/24 01:52:25;;;;;;;18.02;16.08;;;;;;;9.90;100.00;100059.16;5002510;28;20034;-71
2023/10/24 01:54:51;;;;;;;19.23;16.17;;;;;;;9.89;100.00;100052.13;5002868;28;20096;-72
2023/10/24 01:57:16;;;;;;;17.88;14.95;;;;;;;9.88;100.00;100061.06;4996754;28;20034;-70
2023/10/24 01:59:41;;;;;;;17.77;13.48;;;;;;;9.88;100.00;100066.38;5000852;28;20380;-72
2023/10/24 02:02:07;;;;;;;16.40;13.00;;;;;;;9.86;100.00;100053.16;4997301;28;20041;-71
2023/10/24 02:04:32;;;;;;;13.85;11.40;;;;;;;9.87;100.00;100060.22;5003320;28;20075;-71
2023/10/24 02:06:57;;;;;;;12.40;10.93;;;;;;;9.87;100.00;100056.72;5004109;28;20025;-73
2023/10/24 02:09:23;;;;;;;11.98;10.10;;;;;;;9.86;100.00;100057.63;5002586;28;20029;-72
2023/10/24 02:11:48;;;;;;;12.23;10.02;;;;;;;9.83;100.00;100053.38;4997733;28;20488;-72
2023/10/24 02:14:13;;;;;;;11.35;10.25;;;;;;;9.77;100.00;100035.13;4997320;28;20391;-72
2023/10/24 02:16:39;;;;;;;14.27;10.90;;;;;;;9.86;100.00;100052.31;4985862;28;20045;-72
2023/10/24 02:19:04;;;;;;;11.93;10.32;;;;;;;9.87;100.00;100048.75;4985090;28;20026;-70
2023/10/24 02:21:30;;;;;;;11.70;10.50;;;;;;;9.86;100.00;100047.00;5003359;28;20036;-71
2023/10/24 02:23:55;;;;;;;12.20;10.90;;;;;;;9.88;100.00;100061.06;4999311;28;20335;-71
2023/10/24 02:26:20;;;;;;;13.60;11.23;;;;;;;9.90;100.00;100053.84;4996518;28;20065;-70
2023/10/24 02:28:45;;;;;;;12.93;11.57;;;;;;;9.89;100.00;100050.34;5002259;28;20018;-72
2023/10/24 02:31:11;;;;;;;13.15;11.80;;;;;;;9.91;100.00;100066.22;5000635;28;20030;-71
2023/10/24 02:33:37;;;;;;;12.68;11.48;;;;;;;9.89;100.00;100057.47;4997138;28;20374;-71
2023/10/24 02:36:09;;;;;;;13.30;11.73;;;;;;;9.86;100.00;100058.47;4997544;28;20033;-71
2023/10/24 02:38:35;;;;;;;15.13;11.90;;;;;;;9.91;100.00;100066.22;4984247;28;20544;-71
2023/10/24 02:41:00;;;;;;;14.07;12.68;;;;;;;9.93;100.00;100073.13;4997850;28;20030;-72
2023/10/24 02:43:26;;;;;;;15.52;12.27;;;;;;;9.91;100.00;100068.88;4992957;28;20338;-72
2023/10/24 02:45:52;;;;;;;14.18;12.68;;;;;;;9.94;100.00;100073.97;4999993;28;20065;-71
2023/10/24 02:48:17;;;;;;;15.77;12.48;;;;;;;9.90;100.00;100064.47;4999619;28;20432;-72
2023/10/24 02:50:43;;;;;;;14.02;12.50;;;;;;;9.91;100.00;100060.88;5001042;28;20049;-70
2023/10/24 02:53:09;;;;;;;14.30;11.90;;;;;;;9.92;100.00;100076.72;5001928;28;20097;-70
2023/10/24 02:55:34;;;;;;;13.10;11.65;;;;;;;9.93;100.00;100072.28;4996461;28;20189;-70
2023/10/24 02:57:59;;;;;;;13.00;11.73;;;;;;;9.92;100.00;100075.88;5000223;28;20026;-73
2023/10/24 03:00:25;;;;;;;12.65;11.25;;;;;;;9.91;100.00;100077.69;4993925;28;20026;-72
2023/10/24 03:02:50;;;;;;;12.70;11.18;;;;;;;9.92;100.00;100089.19;5000798;28;20028;-71
2023/10/24 03:05:15;;;;;;;13.32;12.02;;;;;;;9.91;100.00;100082.16;5006666;28;20440;-70
2023/10/24 03:07:41;;;;;;;14.23;12.55;;;;;;;9.91;100.00;100092.78;5002307;28;20066;-70
2023/10/24 03:10:07;;;;;;;13.55;11.40;;;;;;;9.90;100.00;100086.59;4997968;28;20113;-71
2023/10/24 03:12:32;;;;;;;13.13;11.05;;;;;;;9.89;100.00;100084.88;4999706;28;20022;-71
2023/10/24 03:14:58;;;;;;;11.50;10.40;;;;;;;9.90;100.00;100083.94;5005917;28;20022;-70
2023/10/24 03:17:26;;;;;;;11.77;10.57;;;;;;;9.89;100.00;100097.31;5002427;28;20061;-70
2023/10/24 03:19:52;;;;;;;11.63;10.52;;;;;;;9.88;100.00;100083.19;5003288;28;20038;-70
2023/10/24 03:22:18;;;;;;;10.70;9.70;;;;;;;9.86;100.00;100087.72;5005590;28;20034;-71
2023/10/24 03:24:44;;;;;;;10.48;9.48;;;;;;;9.86;100.00;100087.72;4997776;28;20053;-71
2023/10/24 03:27:12;;;;;;;10.45;9.32;;;;;;;9.83;100.00;100087.06;4998625;28;20045;-72
2023/10/24 03:29:40;;;;;;;10.55;9.55;;;;;;;9.87;100.00;100089.47;5003913;28;20095;-72
2023/10/24 03:32:06;;;;;;;10.85;9.80;;;;;;;9.87;100.00;100096.56;5004153;28;20137;-72
2023/10/24 03:34:31;;;;;;;11.05;9.88;;;;;;;9.85;100.00;100082.50;4998552;28;20040;-72
2023/10/24 03:36:57;;;;;;;10.20;9.30;;;;;;;9.88;100.00;100092.97;5003210;28;20137;-72
2023/10/24 03:39:22;;;;;;;10.18;9.00;;;;;;;9.84;100.00;100081.66;4999919;28;20085;-71
2023/10/24 03:41:48;;;;;;;11.05;9.70;;;;;;;9.84;100.00;100086.97;5002547;28;20045;-71
2023/10/24 03:44:14;;;;;;;10.15;9.25;;;;;;;9.84;100.00;100086.13;5000043;28;20575;-72
2023/10/24 03:46:39;;;;;;;10.45;9.45;;;;;;;9.84;100.00;100081.66;4998489;28;20543;-70
2023/10/24 03:49:04;;;;;;;10.80;9.70;;;;;;;9.82;100.00;100093.31;4999310;28;20029;-72
2023/10/24 03:51:30;;;;;;;11.88;10.65;;;;;;;9.80;100.00;100090.75;5005034;28;20488;-71
2023/10/24 03:53:55;;;;;;;9.70;8.80;;;;;;;9.82;100.00;100094.16;5003380;28;20597;-69
2023/10/24 03:56:20;;;;;;;9.88;8.88;;;;;;;9.77;100.00;100088.28;5005006;28;20039;-71
2023/10/24 03:58:46;;;;;;;10.18;9.20;;;;;;;9.79;100.00;100089.06;5000880;28;20025;-71
2023/10/24 04:01:11;;;;;;;10.35;9.23;;;;;;;9.80;100.00;100097.88;4999271;28;20512;-71
2023/10/24 04:03:37;;;;;;;10.85;9.70;;;;;;;9.79;100.00;100101.50;5000041;28;20034;-73
2023/10/24 04:06:02;;;;;;;10.88;9.02;;;;;;;9.76;100.00;100088.38;4988508;28;20029;-73
2023/10/24 04:08:27;;;;;;;9.52;8.60;;;;;;;9.72;100.00;100077.06;5004404;28;20500;-72
2023/10/24 04:10:53;;;;;;;9.93;8.93;;;;;;;9.73;100.00;100084.94;5002110;28;20034;-73
2023/10/24 04:13:18;;;;;;;8.98;8.07;;;;;;;9.78;100.00;100087.34;4997513;28;20045;-72
2023/10/24 04:15:43;;;;;;;8.48;7.78;;;;;;;9.75;100.00;100078.69;4996938;28;20556;-71
2023/10/24 04:18:10;;;;;;;8.82;7.93;;;;;;;9.75;100.00;100073.38;5003872;28;20072;-73
2023/10/24 04:20:40;;;;;;;8.05;7.28;;;;;;;9.72;100.00;100077.06;5005653;28;20030;-72
2023/10/24 04:23:12;;;;;;;6.97;6.38;;;;;;;9.72;100.00;100064.63;5002935;28;20022;-73
2023/10/24 04:25:37;;;;;;;7.22;6.53;;;;;;;9.70;100.00;100068.34;5003042;28;20029;-71
2023/10/24 04:28:03;;;;;;;6.70;6.00;;;;;;;9.69;100.00;100063.97;5005124;28;20469;-70
2023/10/24 04:30:28;;;;;;;5.97;5.47;;;;;;;9.70;100.00;100066.53;5004941;28;20255;-72
2023/10/24 04:32:55;;;;;;;6.93;6.32;;;;;;;9.67;100.00;100068.53;4998586;28;20032;-71
2023/10/24 04:35:20;;;;;;;6.65;5.93;;;;;;;9.68;100.00;100060.44;5004947;28;20080;-71
2023/10/24 04:37:47;;;;;;;5.72;5.20;;;;;;;9.67;100.00;100063.22;5005664;28;20025;-71
2023/10/24 04:40:13;;;;;;;5.63;5.20;;;;;;;9.67;100.00;100057.91;5004953;28;20418;-72
2023/10/24 04:42:38;;;;;;;6.28;5.65;;;;;;;9.61;100.00;100058.25;5001983;28;20057;-72
2023/10/24 04:45:04;;;;;;;6.25;5.25;;;;;;;9.65;100.00;100067.75;4987547;28;20423;-72
2023/10/24 04:47:30;;;;;;;6.03;5.20;;;;;;;9.65;100.00;100070.41;4997438;28;20038;-72
2023/10/24 04:49:55;;;;;;;5.15;4.75;;;;;;;9.62;100.00;100066.16;4997273;28;20026;-70
2023/10/24 04:52:21;;;;;;;5.10;4.60;;;;;;;9.58;100.00;100064.63;4995849;28;20076;-71
2023/10/24 04:54:46;;;;;;;5.25;4.75;;;;;;;9.60;100.00;100070.69;4998666;28;20041;-70
2023/10/24 04:57:12;;;;;;;5.05;4.28;;;;;;;9.59;100.00;100068.13;5004355;28;20061;-72
2023/10/24 04:59:37;;;;;;;5.53;4.70;;;;;;;9.56;100.00;100070.94;5002863;28;20101;-71
2023/10/24 05:02:03;;;;;;;5.10;4.60;;;;;;;9.57;100.00;100070.88;5000973;28;20137;-71
2023/10/24 05:04:29;;;;;;;5.65;4.72;;;;;;;9.56;100.00;100071.81;4990650;28;20526;-71
2023/10/24 05:06:55;;;;;;;5.05;4.65;;;;;;;9.55;100.00;100077.22;4994975;28;20018;-71
2023/10/24 05:09:21;;;;;;;6.88;4.68;;;;;;;9.56;100.00;100081.56;5003292;28;20080;-72
2023/10/24 05:11:47;;;;;;;4.68;4.28;;;;;;;9.53;100.00;100084.41;5003610;28;20018;-72
2023/10/24 05:14:13;;;;;;;5.25;4.78;;;;;;;9.53;100.00;100077.31;5003982;28;20088;-71
2023/10/24 05:16:39;;;;;;;5.15;4.70;;;;;;;9.52;100.00;100075.59;5005472;28;20042;-71
2023/10/24 05:19:05;;;;;;;5.45;4.95;;;;;;;9.52;100.00;100082.69;5000654;28;20320;-72
2023/10/24 05:21:31;;;;;;;5.88;5.30;;;;;;;9.54;100.00;100072.84;5001714;28;20041;-70
2023/10/24 05:23:57;;;;;;;5.72;5.22;;;;;;;9.49;100.00;100065.16;5003330;28;20101;-71
2023/10/24 05:26:22;;;;;;;5.55;5.05;;;;;;;9.53;100.00;100055.19;5002501;28;20049;-71
2023/10/24 05:28:48;;;;;;;5.28;4.78;;;;;;;9.55;100.00;100055.97;5003520;28;20038;-71
2023/10/24 05:31:13;;;;;;;4.95;4.50;;;;;;;9.51;100.00;100055.28;5001300;28;20040;-71
2023/10/24 05:33:39;;;;;;;5.13;4.72;;;;;;;9.50;100.00;100052.72;4999888;28;20029;-72
2023/10/24 05:36:04;;;;;;;4.93;4.53;;;;;;;9.47;100.00;100048.44;5001172;28;20026;-71
2023/10/24 05:38:32;;;;;;;5.15;4.63;;;;;;;9.42;100.00;100043.41;5002449;28;20033;-71
2023/10/24 05:40:58;;;;;;;4.65;4.15;;;;;;;9.39;100.00;100040.91;4995814;28;20026;-72
2023/10/24 05:43:23;;;;;;;4.32;4.00;;;;;;;9.41;100.00;100054.13;4997135;28;20108;-71
2023/10/24 05:45:49;;;;;;;4.60;4.20;;;;;;;9.41;100.00;100052.31;5003203;28;20072;-72
2023/10/24 05:48:14;;;;;;;4.40;4.00;;;;;;;9.44;100.00;100061.91;5002151;28;20490;-72
2023/10/24 05:50:40;;;;;;;4.68;4.28;;;;;;;9.46;100.00;100060.88;4999240;28;20030;-70
2023/10/24 05:53:05;;;;;;;4.40;4.00;;;;;;;9.45;100.00;100068.94;5002408;28;20033;-71
2023/10/24 05:55:33;;;;;;;4.47;4.10;;;;;;;9.47;100.00;100073.19;5002080;28;20563;-71
2023/10/24 05:57:58;;;;;;;3.70;3.40;;;;;;;9.44;100.00;100089.31;4985310;28;20034;-71
2023/10/24 06:00:24;;;;;;;4.18;3.85;;;;;;;9.44;100.00;100088.47;4985149;28;20091;-72
2023/10/24 06:02:49;;;;;;;4.57;4.07;;;;;;;9.45;100.00;100091.03;4997328;28;20041;-72
2023/10/24 06:05:15;;;;;;;4.07;3.78;;;;;;;9.45;100.00;100087.53;4985855;28;20117;-72
2023/10/24 06:07:40;;;;;;;5.10;4.60;;;;;;;9.45;100.00;100074.25;5000791;28;20034;-70
2023/10/24 06:10:06;;;;;;;4.43;4.00;;;;;;;9.48;100.00;100066.94;5000311;28;20038;-71
2023/10/24 06:12:32;;;;;;;5.22;4.20;;;;;;;9.47;100.00;100045.78;4991319;28;20480;-71
2023/10/24 06:14:57;;;;;;;4.50;4.10;;;;;;;9.49;100.00;100043.91;4998394;28;20030;-72
2023/10/24 06:17:23;;;;;;;4.90;4.38;;;;;;;9.45;100.00;100051.19;4995927;28;20030;-71
2023/10/24 06:19:49;;;;;;;5.00;4.60;;;;;;;9.42;100.00;100046.06;4998241;28;20030;-73
2023/10/24 06:22:15;;;;;;;4.70;4.30;;;;;;;9.47;100.00;100059.06;5003578;28;20030;-72
2023/10/24 06:24:40;;;;;;;5.22;4.50;;;;;;;9.49;100.00;100065.16;4984789;28;20050;-72
2023/10/24 06:27:05;;;;;;;5.55;5.05;;;;;;;9.50;100.00;100077.50;4994872;28;20030;-71
2023/10/24 06:29:31;;;;;;;7.70;4.80;;;;;;;9.53;100.00;100087.94;4999267;28;20034;-70
2023/10/24 06:31:57;;;;;;;4.63;4.22;;;;;;;9.53;100.00;100076.44;4999203;28;20021;-72
2023/10/24 06:34:23;;;;;;;5.68;5.15;;;;;;;9.51;100.00;100075.69;4998368;28;20065;-72
2023/10/24 06:36:49;;;;;;;6.57;5.75;;;;;;;9.55;100.00;100085.19;4997896;28;20536;-72
2023/10/24 06:39:14;;;;;;;6.57;5.97;;;;;;;9.56;100.00;100081.56;5000378;28;20064;-71
2023/10/24 06:41:39;;;;;;;6.45;5.85;;;;;;;9.55;100.00;100079.88;4996574;28;20041;-71
2023/10/24 06:44:05;;;;;;;8.23;7.38;;;;;;;9.58;100.00;100088.53;4998249;28;20455;-71
2023/10/24 06:46:30;;;;;;;6.93;6.32;;;;;;;9.56;100.00;100081.56;5000531;28;20041;-71
2023/10/24 06:48:55;;;;;;;7.93;6.80;;;;;;;9.58;100.00;100091.19;5000298;28;20018;-72
2023/10/24 06:51:22;;;;;;;8.45;7.15;;;;;;;9.61;100.00;100096.28;4993674;28;20061;-71
2023/10/24 06:53:47;;;;;;;8.45;7.70;;;;;;;9.57;100.00;100088.59;4979652;28;20117;-71
2023/10/24 06:56:13;;;;;;;8.63;7.82;;;;;;;9.60;100.00;100085.75;5000247;28;20124;-71
2023/10/24 06:58:40;;;;;;;8.98;7.90;;;;;;;9.62;100.00;100074.13;4996281;28;20594;-72
2023/10/24 07:01:05;;;;;;;11.50;8.65;;;;;;;9.65;100.00;100081.03;5003219;28;20581;-71
2023/10/24 07:03:30;;;;;;;9.20;8.30;;;;;;;9.65;100.00;100081.88;4998479;28;20451;-70
2023/10/24 07:05:59;;;;;;;9.70;8.80;;;;;;;9.65;100.00;100081.03;4984529;28;20109;-71
2023/10/24 07:08:25;;;;;;;9.63;8.82;;;;;;;9.66;100.00;100085.44;5002478;28;20022;-71
2023/10/24 07:10:50;;;;;;;11.13;10.00;;;;;;;9.66;100.00;100069.47;5001044;28;20348;-71
2023/10/24 07:13:16;;;;;;;10.65;9.55;;;;;;;9.66;100.00;100067.66;5003047;28;20022;-70
2023/10/24 07:15:41;;;;;;;10.38;8.48;;;;;;;9.67;100.00;100073.84;5000609;28;20034;-70
2023/10/24 07:18:07;;;;;;;10.73;9.30;;;;;;;9.68;100.00;100076.41;5000467;28;20065;-71
2023/10/24 07:20:36;;;;;;;10.23;8.98;;;;;;;9.67;100.00;100077.34;5002933;28;20026;-71
2023/10/24 07:23:03;;;;;;;9.90;8.95;;;;;;;9.73;100.00;100068.16;5003909;28;20025;-73
2023/10/24 07:25:29;;;;;;;10.85;9.25;;;;;;;9.75;100.00;100070.72;5004910;28;20026;-73
2023/10/24 07:27:55;;;;;;;10.20;8.90;;;;;;;9.76;100.00;100073.28;5003144;28;20534;-74
2023/10/24 07:30:22;;;;;;;9.38;8.35;;;;;;;9.82;100.00;100075.56;5003686;28;20034;-73
2023/10/24 07:32:48;;;;;;;9.27;7.97;;;;;;;9.82;100.00;100070.25;5003342;28;20026;-73
2023/10/24 07:35:13;;;;;;;10.00;8.30;;;;;;;9.92;100.00;100067.91;5002245;28;20626;-73
2023/10/24 07:37:39;;;;;;;9.60;8.60;;;;;;;9.95;100.00;100062.41;4984376;28;20038;-73
2023/10/24 07:40:05;;;;;;;10.60;9.40;;;;;;;10.02;100.00;100062.88;5003335;28;20053;-73
2023/10/24 07:42:30;;;;;;;9.07;8.20;;;;;;;10.07;100.00;100058.97;5001088;28;20286;-73
2023/10/24 07:44:56;;;;;;;10.98;9.02;;;;;;;10.08;100.00;100051.88;4986983;28;20042;-73
2023/10/24 07:47:22;;;;;;;9.55;8.55;;;;;;;10.12;100.00;100064.03;4987430;28;20160;-73
2023/10/24 07:49:47;;;;;;;9.85;8.85;;;;;;;10.13;100.00;100071.06;4994807;28;20105;-72
2023/10/24 07:52:13;;;;;;;10.35;9.27;;;;;;;10.13;100.00;100066.59;5004327;28;20052;-73
2023/10/24 07:54:38;;;;;;;9.80;8.80;;;;;;;10.25;100.00;100074.81;5006269;28;20068;-72
2023/10/24 07:57:04;;;;;;;8.90;8.07;;;;;;;10.32;100.00;100063.69;5006452;28;20477;-72
2023/10/24 07:59:29;;;;;;;10.90;9.25;;;;;;;10.43;100.00;100069.19;5002572;28;20048;-72
2023/10/24 08:01:55;;;;;;;10.23;9.05;;;;;;;10.56;100.00;100063.94;4996509;28;20026;-72
2023/10/24 08:04:20;;;;;;;9.68;8.68;;;;;;;10.63;100.00;100062.63;5005324;28;20025;-71
2023/10/24 08:06:46;;;;;;;9.90;8.90;;;;;;;10.65;100.00;100058.03;5005307;28;20046;-71
2023/10/24 08:09:11;;;;;;;10.65;9.57;;;;;;;10.76;100.00;100056.53;5006231;28;20084;-71
2023/10/24 08:11:36;;;;;;;9.35;8.43;;;;;;;10.73;100.00;100055.75;5002266;28;20028;-71
2023/10/24 08:14:02;;;;;;;9.60;8.25;;;;;;;10.69;100.00;100064.88;5005847;28;20459;-72
2023/10/24 08:16:28;;;;;;;11.52;8.40;;;;;;;10.65;100.00;100062.50;4988056;28;20193;-74
2023/10/24 08:18:54;;;;;;;8.43;7.63;;;;;;;10.58;100.00;100061.22;5007326;28;20272;-71
2023/10/24 08:21:19;;;;;;;9.43;8.63;;;;;;;10.53;100.00;100068.59;5006557;28;20037;-74
2023/10/24 08:23:44;;;;;;;9.35;8.43;;;;;;;10.44;100.00;100065.56;4986144;28;20099;-73
2023/10/24 08:26:10;;;;;;;8.57;7.78;;;;;;;10.41;100.00;100076.44;5007089;28;20109;-72
2023/10/24 08:28:35;;;;;;;8.68;7.75;;;;;;;10.39;100.00;100093.41;5006769;28;20072;-71
2023/10/24 08:31:00;;;;;;;9.07;8.18;;;;;;;10.44;100.00;100101.97;5004514;28;20029;-72
2023/10/24 08:33:28;;;;;;;10.70;8.40;;;;;;;10.48;100.00;100100.81;5004022;28;20100;-71
2023/10/24 08:35:53;;;;;;;10.38;7.65;;;;;;;10.43;100.00;100079.84;5005373;28;20053;-72
2023/10/24 08:38:19;;;;;;;10.02;7.93;;;;;;;10.66;100.00;100099.69;4999825;28;20128;-70
2023/10/24 08:40:45;;;;;;;9.85;7.13;;;;;;;10.79;100.00;100101.59;5002333;28;20040;-70
2023/10/24 08:43:11;;;;;;;7.70;6.88;;;;;;;10.88;100.00;100099.19;5003045;28;20026;-70
2023/10/24 08:45:37;;;;;;;12.32;7.03;;;;;;;10.95;100.00;100092.50;5001953;28;20056;-70
2023/10/24 08:48:06;;;;;;;7.38;6.63;;;;;;;10.96;100.00;100104.03;4985752;28;20041;-70
2023/10/24 08:50:33;;;;;;;6.70;6.10;;;;;;;11.00;100.00;100094.88;5004181;28;20030;-70
2023/10/24 08:52:58;;;;;;;8.30;6.15;;;;;;;11.09;100.00;100094.28;5003790;28;20084;-70
2023/10/24 08:55:24;;;;;;;7.65;6.65;;;;;;;11.28;100.00;100104.56;4998487;28;20487;-72
2023/10/24 08:57:50;;;;;;;7.63;6.82;;;;;;;11.46;100.00;100122.03;5005204;28;20265;-71
2023/10/24 09:00:16;;;;;;;7.57;6.88;;;;;;;11.58;100.00;100112.38;5005433;28;20045;-71
2023/10/24 09:02:42;;;;;;;6.45;5.85;;;;;;;11.65;100.00;100102.13;5005120;28;20257;-69
2023/10/24 09:05:10;;;;;;;6.40;5.78;;;;;;;11.74;100.00;100074.84;5004323;28;20041;-71
2023/10/24 09:07:36;;;;;;;6.68;5.97;;;;;;;11.79;100.00;100074.53;5004878;28;20022;-71
2023/10/24 09:10:02;;;;;;;6.97;6.03;;;;;;;11.89;100.00;100067.66;5003213;28;20030;-70
2023/10/24 09:12:31;;;;;;;6.50;5.45;;;;;;;11.99;100.00;100070.53;5004682;28;20029;-70
2023/10/24 09:15:00;;;;;;;5.75;5.25;;;;;;;12.09;100.00;100058.31;4999985;28;20128;-72
2023/10/24 09:17:26;;;;;;;7.00;5.85;;;;;;;12.14;100.00;100056.16;4998551;28;20033;-70
2023/10/24 09:19:55;;;;;;;6.18;5.57;;;;;;;12.18;100.00;100058.50;4985502;28;20500;-70
2023/10/24 09:22:22;;;;;;;6.40;4.93;;;;;;;12.06;100.00;100047.84;4986289;28;20258;-70
2023/10/24 09:24:49;;;;;;;6.28;4.75;;;;;;;12.00;100.00;100050.91;4978859;28;20041;-70
2023/10/24 09:27:15;;;;;;;5.20;4.63;;;;;;;12.03;100.00;100048.03;5003764;28;20057;-71
2023/10/24 09:29:41;;;;;;;5.95;4.55;;;;;;;12.07;100.00;100045.03;5003672;28;20500;-69
2023/10/24 09:32:12;;;;;;;5.55;4.55;;;;;;;12.18;100.00;100046.97;5000799;28;20152;-69
2023/10/24 09:34:41;;;;;;;5.10;4.60;;;;;;;12.27;100.00;100045.47;5000305;28;20109;-70
2023/10/24 09:37:07;;;;;;;5.07;4.55;;;;;;;12.32;100.00;100054.84;5003524;28;20055;-71
2023/10/24 09:39:33;;;;;;;6.78;4.80;;;;;;;12.45;100.00;100062.84;5003867;28;20468;-70
2023/10/24 09:41:58;;;;;;;4.63;4.20;;;;;;;12.49;100.00;100055.47;5003511;28;20090;-71
2023/10/24 09:44:24;;;;;;;4.90;4.40;;;;;;;12.47;100.00;100052.94;4985871;28;20053;-70
2023/10/24 09:46:50;;;;;;;5.57;4.50;;;;;;;12.39;100.00;100050.78;5000419;28;20061;-71
2023/10/24 09:49:17;;;;;;;5.05;4.55;;;;;;;12.38;100.00;100046.44;4998553;28;20113;-71
2023/10/24 09:51:43;;;;;;;5.57;4.75;;;;;;;12.37;100.00;100047.41;5002422;28;20032;-69
2023/10/24 09:54:08;;;;;;;6.47;5.35;;;;;;;12.35;100.00;100049.31;5003476;28;20115;-71
2023/10/24 09:56:34;;;;;;;6.25;5.28;;;;;;;12.28;100.00;100040.03;5002861;28;20022;-71
2023/10/24 09:58:59;;;;;;;7.70;5.28;;;;;;;12.25;100.00;100042.94;5002804;28;20041;-70
2023/10/24 10:01:29;;;;;;;8.10;5.70;;;;;;;12.22;100.00;100048.47;5003521;28;20030;-70
2023/10/24 10:04:00;;;;;;;6.15;5.55;;;;;;;12.12;100.00;100048.28;4985010;28;20034;-70
2023/10/24 10:06:27;;;;;;;6.40;5.78;;;;;;;12.15;100.00;100052.53;5003462;28;20021;-71
2023/10/24 10:08:55;;;;;;;6.53;5.75;;;;;;;12.16;100.00;100057.78;5004062;28;20066;-71
2023/10/24 10:11:22;;;;;;;6.50;5.60;;;;;;;12.15;100.00;100066.72;5003418;28;20420;-71
2023/10/24 10:13:53;;;;;;;8.90;6.00;;;;;;;12.13;100.00;100065.13;5004026;28;20456;-70
2023/10/24 10:17:00;;;;;;;7.72;5.72;;;;;;;12.15;100.00;100060.53;5002365;28;20060;-71
2023/10/24 10:19:46;;;;;;;7.18;5.80;;;;;;;12.08;100.00;100067.25;5003080;28;20033;-71
2023/10/24 10:22:39;;;;;;;6.45;5.85;;;;;;;12.02;100.00;100062.34;5003939;28;20033;-71
2023/10/24 10:25:23;;;;;;;7.43;5.63;;;;;;;11.97;100.00;100062.66;5003425;28;20378;-71
2023/10/24 10:27:51;;;;;;;;;;;;;;;12.03;100.00;100062.22;4991815;28;20422;-71
2023/10/24 10:30:21;;;;;;;6.35;5.70;;;;;;;11.90;100.00;100046.22;5004109;28;19909;-70
2023/10/24 10:32:55;;;;;;;6.00;5.40;;;;;;;11.85;100.00;100050.16;5001427;28;20053;-72
2023/10/24 10:35:21;;;;;;;6.68;5.88;;;;;;;11.85;100.00;100047.50;5002424;28;20029;-71
2023/10/24 10:38:04;;;;;;;6.22;5.63;;;;;;;11.84;100.00;100043.13;5003575;28;20017;-71
2023/10/24 10:40:30;;;;;;;5.97;5.47;;;;;;;11.83;100.00;100046.75;5003232;28;20022;-71
2023/10/24 10:42:55;;;;;;;6.78;5.70;;;;;;;11.82;100.00;100053.84;5003407;28;20021;-70
2023/10/24 10:45:28;;;;;;;6.80;5.75;;;;;;;11.77;100.00;100045.34;4998671;28;20037;-72
2023/10/24 10:47:57;;;;;;;6.80;6.07;;;;;;;11.68;100.00;100048.63;4982485;28;20185;-71
2023/10/24 10:50:24;;;;;;;7.82;7.03;;;;;;;11.55;100.00;100048.59;5001568;28;20314;-71
2023/10/24 10:53:34;;;;;;;8.02;6.32;;;;;;;11.41;100.00;100040.66;5001886;28;20030;-69
2023/10/24 10:56:17;;;;;;;7.07;6.25;;;;;;;11.21;100.00;100044.69;5001620;28;20037;-69
2023/10/24 10:59:12;;;;;;;8.13;7.40;;;;;;;11.05;100.00;100051.97;4996359;28;20038;-69
2023/10/24 11:01:50;;;;;;;10.88;9.07;;;;;;;10.92;100.00;100062.56;5000194;28;20038;-68
2023/10/24 11:04:16;;;;;;;10.70;9.60;;;;;;;10.82;100.00;100061.44;5002664;28;20038;-70
2023/10/24 11:06:51;;;;;;;11.38;9.90;;;;;;;10.74;100.00;100059.25;4999557;28;20124;-70
2023/10/24 11:09:20;;;;;;;11.50;9.35;;;;;;;10.66;100.00;100057.13;5002356;28;20385;-72
2023/10/24 11:11:46;;;;;;;12.25;11.00;;;;;;;10.58;100.00;100062.06;5003658;28;20022;-69
2023/10/24 11:14:21;;;;;;;12.25;11.05;;;;;;;10.50;100.00;100058.19;5001597;28;20503;-70